Terminal Aerodrome Forecast
Issued by NWS Cleveland, OH

Home | Current Version | Previous Version | Graphics & Text | Print | Product List | Glossary On
Versions: 1 2 3 4 5 6 7 8 9 10 11 12 13 14 15 16 17 18 19 20 21 22 23 24 25 26 27
000
FTUS41 KCLE 272135 AAC
TAFCLE
TAF AMD
KCLE 272135Z 2722/2824 31015G30KT P6SM VCTS BKN050CB OVC120
     FM272300 02005KT P6SM VCSH BKN050 BKN250
      TEMPO 2723/2801 22010G20KT 4SM -TSRA BKN025CB OVC040
     FM280200 18003KT P6SM SCT060 OVC100
     FM281300 25006KT P6SM SCT050
     FM281800 31007KT P6SM SCT050=

USA.gov is the U.S. government's official web portal to all federal, state and local government web resources and services.